createdAt,value
2019-02-28T00:01:00.169Z,1.40
2019-02-28T00:03:47.505Z,1.30
2019-02-28T00:06:34.964Z,1.20
2019-02-28T00:09:22.038Z,1.20
2019-02-28T00:12:10.209Z,1.00
2019-02-28T00:14:58.711Z,1.10
2019-02-28T00:17:47.101Z,1.10
2019-02-28T00:20:36.569Z,1.00
2019-02-28T00:23:23.976Z,1.00
2019-02-28T00:26:12.368Z,0.90
2019-02-28T00:29:00.496Z,1.00
2019-02-28T00:31:50.184Z,1.00
2019-02-28T00:34:39.304Z,1.00
2019-02-28T00:37:27.569Z,1.10
2019-02-28T00:40:15.232Z,1.10
2019-02-28T00:43:02.963Z,1.10
2019-02-28T00:45:50.459Z,1.00
2019-02-28T00:48:37.484Z,1.00
2019-02-28T00:51:24.739Z,0.90
2019-02-28T00:54:12.292Z,0.80
2019-02-28T00:56:59.613Z,0.60
2019-02-28T00:59:47.402Z,0.50
2019-02-28T01:02:34.876Z,0.50
2019-02-28T01:05:22.708Z,0.70
2019-02-28T01:08:10.307Z,0.60
2019-02-28T01:10:57.961Z,0.60
2019-02-28T01:13:45.102Z,0.60
2019-02-28T01:16:32.750Z,0.60
2019-02-28T01:19:20.028Z,0.60
2019-02-28T01:22:08.189Z,0.50
2019-02-28T01:24:55.624Z,0.40
2019-02-28T01:27:42.954Z,0.40
2019-02-28T01:30:30.649Z,0.40
2019-02-28T01:33:18.383Z,0.40
2019-02-28T01:36:07.522Z,0.40
2019-02-28T01:38:57.793Z,0.30
2019-02-28T01:41:45.273Z,0.20
2019-02-28T01:44:35.935Z,0.10
2019-02-28T01:47:22.435Z,0.00
2019-02-28T01:50:10.238Z,0.00
2019-02-28T01:52:57.800Z,0.20
2019-02-28T01:55:45.400Z,0.20
2019-02-28T01:58:32.753Z,0.10
2019-02-28T02:01:20.137Z,0.10
2019-02-28T02:04:07.315Z,0.10
2019-02-28T02:06:59.659Z,0.10
2019-02-28T02:09:46.146Z,0.10
2019-02-28T02:12:33.700Z,0.00
2019-02-28T02:15:21.153Z,-0.10
2019-02-28T04:16:08.658Z,-1.10
2019-02-28T04:18:46.866Z,-1.10
2019-02-28T04:21:34.321Z,-1.00
2019-02-28T04:24:30.232Z,-1.10
2019-02-28T04:27:19.033Z,-1.20
2019-02-28T04:30:11.756Z,-1.20
2019-02-28T04:33:02.537Z,-1.20
2019-02-28T04:36:00.506Z,-1.20
2019-02-28T04:38:56.592Z,-1.20
2019-02-28T04:42:04.946Z,-1.20
2019-02-28T04:44:55.346Z,-1.20
2019-02-28T04:47:55.520Z,-1.30
2019-02-28T04:50:52.969Z,-1.30
2019-02-28T04:53:46.936Z,-1.40
2019-02-28T04:56:42.362Z,-1.30
2019-02-28T04:59:31.597Z,-1.40
2019-02-28T05:05:12.111Z,-1.40
2019-02-28T05:07:58.292Z,-1.40
2019-02-28T05:10:49.499Z,-1.40
2019-02-28T05:13:41.139Z,-1.30
2019-02-28T05:16:28.689Z,-1.20
2019-02-28T05:19:16.891Z,-1.30
2019-02-28T05:22:04.623Z,-1.30
2019-02-28T05:24:52.275Z,-1.30
2019-02-28T05:27:39.670Z,-1.40
2019-02-28T05:30:27.532Z,-1.50
2019-02-28T05:33:14.939Z,-1.50
2019-02-28T05:36:04.311Z,-1.60
2019-02-28T05:38:53.558Z,-1.60
2019-02-28T05:41:41.092Z,-1.60
2019-02-28T05:44:28.149Z,-1.70
2019-02-28T05:47:15.405Z,-1.70
2019-02-28T05:50:03.196Z,-1.70
2019-02-28T05:52:51.293Z,-1.70
2019-02-28T05:55:39.120Z,-1.60
2019-02-28T05:58:26.775Z,-1.70
2019-02-28T06:01:14.634Z,-1.70
2019-02-28T06:04:03.336Z,-1.70
2019-02-28T06:07:09.384Z,-1.60
2019-02-28T06:10:00.593Z,-1.50
2019-02-28T06:12:54.769Z,-1.40
2019-02-28T06:15:42.903Z,-1.50
2019-02-28T06:18:33.332Z,-1.50
2019-02-28T06:21:19.695Z,-1.40
2019-02-28T06:24:19.004Z,-1.50
2019-02-28T06:27:09.105Z,-1.60
2019-02-28T06:29:59.139Z,-1.40
2019-02-28T06:32:51.720Z,-1.40
2019-02-28T06:35:58.820Z,-1.50
2019-02-28T06:39:05.713Z,-1.30
2019-02-28T06:42:15.656Z,-1.40
2019-02-28T06:45:09.748Z,-1.40
2019-02-28T06:48:01.049Z,-1.30
2019-02-28T06:50:55.351Z,-1.30
2019-02-28T06:53:59.858Z,-1.30
2019-02-28T06:57:17.804Z,-1.20
2019-02-28T07:00:32.572Z,-1.00
2019-02-28T07:03:26.045Z,-0.80
2019-02-28T07:06:40.185Z,-0.70
2019-02-28T07:09:30.498Z,-0.60
2019-02-28T07:12:29.785Z,-0.50
2019-02-28T07:15:25.100Z,-0.40
2019-02-28T07:18:23.766Z,-0.20
2019-02-28T07:21:11.452Z,0.00
2019-02-28T07:24:02.480Z,0.10
2019-02-28T07:26:52.196Z,0.20
2019-02-28T07:29:37.791Z,0.50
2019-02-28T07:32:26.234Z,0.90
2019-02-28T07:35:13.813Z,1.80
2019-02-28T07:38:01.463Z,2.10
2019-02-28T07:40:49.708Z,2.40
2019-02-28T07:43:38.328Z,3.20
2019-02-28T07:46:25.930Z,3.80
2019-02-28T07:49:14.292Z,4.40
2019-02-28T07:52:02.510Z,5.00
2019-02-28T07:54:51.812Z,5.40
2019-02-28T07:57:39.520Z,5.90
2019-02-28T08:00:26.931Z,5.70
2019-02-28T08:03:13.972Z,5.70
2019-02-28T08:06:04.491Z,6.00
2019-02-28T08:08:50.653Z,6.00
2019-02-28T08:11:38.956Z,6.10
2019-02-28T08:14:26.437Z,6.60
2019-02-28T08:17:14.301Z,7.40
2019-02-28T08:20:01.781Z,7.50
2019-02-28T08:22:49.899Z,7.90
2019-02-28T08:25:39.688Z,8.40
2019-02-28T08:28:29.562Z,8.70
2019-02-28T08:31:17.442Z,9.10
2019-02-28T08:34:05.212Z,9.20
2019-02-28T08:36:52.634Z,9.40
2019-02-28T08:39:41.212Z,9.80
2019-02-28T08:42:28.550Z,10.40
2019-02-28T08:45:16.412Z,11.60
2019-02-28T08:48:03.852Z,12.70
2019-02-28T08:50:52.565Z,12.90
2019-02-28T08:53:40.439Z,12.40
2019-02-28T08:56:28.115Z,12.50
2019-02-28T08:59:20.502Z,12.20
2019-02-28T09:02:05.142Z,12.60
2019-02-28T09:04:52.822Z,13.00
2019-02-28T09:07:40.777Z,12.60
2019-02-28T09:10:28.821Z,12.50
2019-02-28T09:13:16.510Z,12.60
2019-02-28T09:16:04.901Z,12.70
2019-02-28T09:18:52.850Z,12.70
2019-02-28T09:21:41.247Z,12.80
2019-02-28T09:24:28.731Z,13.00
2019-02-28T09:27:16.161Z,13.20
2019-02-28T09:30:04.654Z,13.60
2019-02-28T09:32:52.523Z,14.10
2019-02-28T09:35:45.276Z,14.00
2019-02-28T09:38:28.853Z,14.20
2019-02-28T09:41:16.835Z,14.40
2019-02-28T09:44:06.951Z,14.50
2019-02-28T09:46:53.749Z,14.70
2019-02-28T09:49:41.038Z,14.90
2019-02-28T09:52:28.392Z,15.10
2019-02-28T09:55:15.710Z,15.30
2019-02-28T09:58:03.252Z,15.40
2019-02-28T10:00:50.481Z,15.50
2019-02-28T10:03:38.418Z,15.40
2019-02-28T10:06:25.979Z,15.50
2019-02-28T10:09:16.102Z,15.60
2019-02-28T10:12:07.514Z,15.60
2019-02-28T10:14:52.074Z,15.90
2019-02-28T10:17:39.320Z,15.90
2019-02-28T10:20:28.547Z,16.30
2019-02-28T10:23:18.341Z,16.50
2019-02-28T10:26:05.501Z,16.70
2019-02-28T10:28:53.586Z,16.80
2019-02-28T10:31:41.103Z,17.20
2019-02-28T10:34:28.199Z,17.80
2019-02-28T10:37:15.816Z,17.50
2019-02-28T10:40:05.100Z,18.10
2019-02-28T10:42:52.944Z,18.40
2019-02-28T10:45:41.966Z,17.80
2019-02-28T10:48:29.934Z,17.30
2019-02-28T10:51:17.689Z,17.50
2019-02-28T10:54:05.745Z,17.80
2019-02-28T10:56:53.263Z,17.90
2019-02-28T10:59:40.746Z,18.20
2019-02-28T11:02:28.620Z,18.70
2019-02-28T11:05:19.750Z,18.20
2019-02-28T11:08:09.613Z,18.10
2019-02-28T11:10:56.597Z,18.50
2019-02-28T11:13:44.734Z,19.00
2019-02-28T11:16:32.728Z,18.50
2019-02-28T11:19:20.412Z,18.70
2019-02-28T11:22:07.803Z,19.10
2019-02-28T11:25:00.455Z,18.80
2019-02-28T11:27:44.685Z,19.20
2019-02-28T11:30:33.074Z,19.20
2019-02-28T11:33:22.813Z,19.30
2019-02-28T11:36:09.813Z,19.50
2019-02-28T11:38:57.759Z,19.70
2019-02-28T11:41:45.273Z,20.00
2019-02-28T11:44:32.548Z,19.90
2019-02-28T11:47:20.020Z,19.50
2019-02-28T11:50:07.853Z,19.80
2019-02-28T11:52:55.534Z,20.60
2019-02-28T11:55:42.639Z,21.00
2019-02-28T11:58:30.523Z,21.20
2019-02-28T12:01:18.032Z,20.90
2019-02-28T12:04:05.347Z,20.40
2019-02-28T12:06:52.640Z,20.30
2019-02-28T12:09:40.279Z,20.00
2019-02-28T12:12:28.185Z,20.00
2019-02-28T12:15:17.104Z,20.40
2019-02-28T12:18:04.980Z,20.70
2019-02-28T12:20:52.598Z,20.60
2019-02-28T12:23:40.032Z,20.70
2019-02-28T12:26:27.503Z,20.40
2019-02-28T12:29:14.873Z,20.10
2019-02-28T12:32:02.885Z,20.00
2019-02-28T12:34:50.995Z,20.10
2019-02-28T12:37:38.713Z,20.00
2019-02-28T12:40:27.936Z,20.60
2019-02-28T12:43:15.424Z,21.10
2019-02-28T12:46:02.749Z,20.80
2019-02-28T12:48:50.080Z,20.80
2019-02-28T12:51:39.662Z,20.40
2019-02-28T12:54:26.430Z,20.10
2019-02-28T12:57:14.935Z,20.30
2019-02-28T13:00:02.052Z,20.70
2019-02-28T13:02:49.474Z,20.70
2019-02-28T13:05:36.753Z,20.70
2019-02-28T13:08:24.283Z,21.30
2019-02-28T13:11:11.722Z,20.90
2019-02-28T13:14:00.066Z,20.70
2019-02-28T13:16:48.833Z,20.60
2019-02-28T13:19:36.453Z,20.80
2019-02-28T13:22:24.416Z,21.00
2019-02-28T13:25:12.506Z,20.70
2019-02-28T13:27:59.954Z,20.70
2019-02-28T13:30:50.025Z,20.40
2019-02-28T13:33:36.862Z,20.70
2019-02-28T13:36:24.607Z,20.40
2019-02-28T13:39:12.037Z,20.00
2019-02-28T13:42:03.255Z,20.10
2019-02-28T13:44:47.967Z,20.20
2019-02-28T13:47:35.636Z,20.50
2019-02-28T13:50:25.921Z,20.50
2019-02-28T13:53:18.517Z,20.60
2019-02-28T13:56:05.044Z,21.00
2019-02-28T13:58:53.633Z,20.70
2019-02-28T14:01:42.122Z,21.30
2019-02-28T14:04:30.253Z,21.40
2019-02-28T14:07:17.834Z,21.50
2019-02-28T14:10:06.566Z,21.50
2019-02-28T14:12:57.180Z,21.30
2019-02-28T14:15:47.967Z,21.20
2019-02-28T14:18:33.701Z,21.20
2019-02-28T14:21:21.291Z,21.50
2019-02-28T14:24:09.341Z,20.90
2019-02-28T14:26:57.030Z,21.40
2019-02-28T14:29:48.350Z,21.60
2019-02-28T14:32:33.621Z,21.30
2019-02-28T14:35:22.958Z,21.30
2019-02-28T14:38:10.812Z,21.30
2019-02-28T14:40:59.442Z,21.40
2019-02-28T14:43:47.236Z,21.70
2019-02-28T14:46:34.805Z,21.60
2019-02-28T14:49:22.948Z,21.30
2019-02-28T14:52:10.758Z,20.90
2019-02-28T14:54:58.378Z,20.70
2019-02-28T14:57:48.914Z,20.70
2019-02-28T15:00:35.642Z,20.90
2019-02-28T15:03:22.901Z,21.30
2019-02-28T15:06:10.371Z,21.20
2019-02-28T15:08:57.902Z,21.10
2019-02-28T15:11:47.058Z,20.60
2019-02-28T15:14:34.991Z,20.80
2019-02-28T15:17:23.370Z,21.50
2019-02-28T15:20:13.453Z,21.90
2019-02-28T15:23:01.181Z,21.20
2019-02-28T15:25:50.790Z,20.90
2019-02-28T15:28:37.703Z,20.80
2019-02-28T15:31:25.253Z,21.10
2019-02-28T15:34:12.355Z,21.10
2019-02-28T15:37:00.262Z,21.00
2019-02-28T15:39:49.849Z,20.90
2019-02-28T15:42:39.661Z,20.60
2019-02-28T15:45:26.978Z,20.90
2019-02-28T15:48:14.791Z,20.70
2019-02-28T15:51:03.402Z,20.30
2019-02-28T15:53:51.479Z,20.10
2019-02-28T15:56:39.143Z,20.00
2019-02-28T15:59:26.429Z,20.00
2019-02-28T16:02:14.684Z,20.00
2019-02-28T16:05:05.197Z,20.20
2019-02-28T16:07:51.493Z,19.90
2019-02-28T16:10:39.697Z,19.70
2019-02-28T16:13:34.837Z,19.50
2019-02-28T16:16:25.458Z,19.20
2019-02-28T16:19:13.724Z,18.60
2019-02-28T16:22:02.166Z,18.10
2019-02-28T16:24:49.841Z,17.90
2019-02-28T16:27:37.442Z,17.70
2019-02-28T16:30:24.672Z,17.70
2019-02-28T16:33:13.094Z,17.50
2019-02-28T16:36:00.793Z,17.30
2019-02-28T16:38:48.252Z,17.00
2019-02-28T16:41:36.912Z,16.80
2019-02-28T16:44:27.630Z,16.50
2019-02-28T16:47:14.409Z,16.40
2019-02-28T16:50:01.528Z,16.20
2019-02-28T16:52:48.587Z,16.10
2019-02-28T16:55:36.178Z,16.00
2019-02-28T16:58:23.777Z,15.80
2019-02-28T17:01:11.211Z,15.70
2019-02-28T17:04:00.308Z,15.70
2019-02-28T17:06:48.172Z,15.40
2019-02-28T17:09:42.070Z,15.40
2019-02-28T17:12:40.491Z,15.30
2019-02-28T17:15:39.448Z,15.20
2019-02-28T17:18:27.541Z,15.10
2019-02-28T17:21:20.377Z,15.10
2019-02-28T17:24:08.602Z,15.00
2019-02-28T17:27:18.814Z,15.00
2019-02-28T17:30:37.066Z,14.80
2019-02-28T17:33:24.353Z,14.70
2019-02-28T17:36:12.552Z,14.60
2019-02-28T17:39:00.395Z,14.50
2019-02-28T17:41:47.990Z,14.40
2019-02-28T17:45:16.273Z,14.30
2019-02-28T17:48:34.003Z,14.30
2019-02-28T17:51:49.247Z,14.20
2019-02-28T17:55:09.044Z,14.10
2019-02-28T17:58:16.677Z,14.00
2019-02-28T18:01:30.657Z,13.90
2019-02-28T18:04:46.613Z,13.90
2019-02-28T18:08:24.544Z,13.80
2019-02-28T18:11:55.714Z,13.70
2019-02-28T18:14:50.738Z,13.60
2019-02-28T18:18:23.146Z,13.40
2019-02-28T18:21:37.438Z,13.30
2019-02-28T18:25:14.014Z,13.20
2019-02-28T18:28:18.891Z,13.20
2019-02-28T18:31:24.260Z,13.10
2019-02-28T18:34:16.973Z,13.00
2019-02-28T18:37:04.393Z,12.90
2019-02-28T18:39:51.670Z,12.80
2019-02-28T18:42:39.419Z,12.70
2019-02-28T18:45:27.213Z,12.60
2019-02-28T18:48:17.801Z,12.60
2019-02-28T18:51:03.983Z,12.60
2019-02-28T18:53:51.129Z,12.60
2019-02-28T18:56:38.623Z,12.40
2019-02-28T18:59:26.279Z,12.40
2019-02-28T19:02:13.759Z,12.30
2019-02-28T19:05:00.819Z,12.20
2019-02-28T19:07:48.279Z,12.10
2019-02-28T19:10:35.958Z,11.90
2019-02-28T19:13:23.108Z,11.80
2019-02-28T19:16:11.075Z,11.70
2019-02-28T19:18:58.550Z,11.80
2019-02-28T19:21:46.183Z,11.70
2019-02-28T19:24:33.711Z,11.60
2019-02-28T19:27:21.418Z,11.60
2019-02-28T19:30:10.925Z,11.60
2019-02-28T19:32:58.252Z,11.60
2019-02-28T19:35:45.712Z,11.50
2019-02-28T19:38:33.536Z,11.50
2019-02-28T19:41:21.248Z,11.40
2019-02-28T19:44:08.781Z,11.40
2019-02-28T19:46:56.433Z,11.40
2019-02-28T19:49:43.987Z,11.30
2019-02-28T19:52:31.279Z,11.30
2019-02-28T19:55:18.949Z,11.20
2019-02-28T19:58:06.291Z,11.20
2019-02-28T20:00:53.550Z,11.20
2019-02-28T20:03:40.644Z,11.30
2019-02-28T20:06:28.399Z,11.20
2019-02-28T20:09:16.166Z,11.30
2019-02-28T20:12:04.191Z,11.30
2019-02-28T20:14:51.576Z,11.30
2019-02-28T20:17:38.884Z,11.30
2019-02-28T20:20:27.004Z,11.20
2019-02-28T20:23:15.107Z,11.20
2019-02-28T20:26:02.934Z,11.20
2019-02-28T20:28:50.800Z,11.10
2019-02-28T20:31:37.933Z,11.20
2019-02-28T20:34:25.564Z,11.10
2019-02-28T20:37:12.763Z,11.10
2019-02-28T20:40:00.242Z,11.20
2019-02-28T20:42:48.210Z,11.20
2019-02-28T20:45:35.959Z,11.20
2019-02-28T20:48:23.736Z,11.20
2019-02-28T20:51:11.100Z,11.20
2019-02-28T20:53:58.734Z,11.10
2019-02-28T20:56:46.363Z,11.10
2019-02-28T20:59:34.123Z,11.20
2019-02-28T21:02:21.406Z,11.10
2019-02-28T21:05:09.368Z,11.20
2019-02-28T21:07:57.165Z,11.10
2019-02-28T21:10:44.580Z,11.10
2019-02-28T21:13:31.881Z,11.20
2019-02-28T21:16:18.986Z,11.20
2019-02-28T21:19:06.712Z,11.20
2019-02-28T21:21:54.302Z,11.10
2019-02-28T21:24:41.385Z,11.10
2019-02-28T21:27:28.998Z,11.10
2019-02-28T21:30:18.785Z,11.00
2019-02-28T21:33:06.851Z,11.00
2019-02-28T21:35:54.310Z,11.10
2019-02-28T21:38:41.728Z,11.00
2019-02-28T21:41:29.327Z,11.10
2019-02-28T21:44:22.864Z,11.10
2019-02-28T21:47:10.475Z,11.00
2019-02-28T21:49:57.835Z,11.00
2019-02-28T21:52:45.100Z,10.90
2019-02-28T21:55:32.694Z,10.80
2019-02-28T21:58:20.013Z,10.80
2019-02-28T22:01:07.526Z,10.80
2019-02-28T22:03:54.992Z,10.70
2019-02-28T22:06:42.340Z,10.70
2019-02-28T22:09:34.807Z,10.70
2019-02-28T22:12:21.922Z,10.70
2019-02-28T22:15:11.842Z,10.70
2019-02-28T22:17:59.655Z,10.70
2019-02-28T22:20:47.150Z,10.70
2019-02-28T22:23:34.796Z,10.70
2019-02-28T22:26:22.588Z,10.60
2019-02-28T22:29:10.299Z,10.60
2019-02-28T22:32:24.459Z,10.60
2019-02-28T22:35:20.884Z,10.60
2019-02-28T22:38:08.249Z,10.60
2019-02-28T22:40:55.950Z,10.60
2019-02-28T22:43:43.914Z,10.50
2019-02-28T22:46:31.509Z,10.50
2019-02-28T22:49:18.854Z,10.50
2019-02-28T22:52:05.980Z,10.60
2019-02-28T22:54:53.351Z,10.60
2019-02-28T22:57:41.000Z,10.60
2019-02-28T23:00:58.592Z,10.50
2019-02-28T23:03:46.446Z,10.40
2019-02-28T23:06:34.059Z,10.20
2019-02-28T23:09:21.771Z,10.00
2019-02-28T23:12:09.254Z,9.80
2019-02-28T23:14:56.587Z,9.70
2019-02-28T23:17:43.947Z,9.60
2019-02-28T23:20:31.347Z,9.50
2019-02-28T23:23:18.674Z,9.60
2019-02-28T23:26:08.190Z,9.60
2019-02-28T23:29:08.185Z,9.50
2019-02-28T23:32:32.489Z,9.40
2019-02-28T23:35:29.672Z,9.40
2019-02-28T23:38:17.011Z,9.40
2019-02-28T23:41:05.230Z,9.40
2019-02-28T23:43:52.992Z,9.30
2019-02-28T23:46:40.083Z,9.40
2019-02-28T23:49:27.626Z,9.40
2019-02-28T23:52:15.286Z,9.40
2019-02-28T23:55:02.413Z,9.30
2019-02-28T23:57:49.758Z,9.30
